Time;durP1;ratioP1;P1;durP2;ratioP2;P2;SDS_P1;SDS_P2;PMS_P1;PMS_P2;Temp;Humidity;BMP_temperature;BMP_pressure;BME280_temperature;BME280_humidity;BME280_pressure;Samples;Min_cycle;Max_cycle;Signal;HPM_P1;HPM_P2
2021/08/26 00:06:59;;;;;;;;;;;;;;;;;;5133977;27;19926;-74
2021/08/26 00:09:26;;;;;;;;;;;;;;;;;;5134231;27;19924;-73
2021/08/26 00:11:54;;;;;;;;;;;;;;;;;;5134053;27;19924;-74
2021/08/26 00:14:20;;;;;;;;;;;;;;;;;;5133878;27;19938;-75
2021/08/26 00:16:46;;;;;;;;;;;;;;;;;;5133580;27;19967;-74
2021/08/26 00:19:13;;;;;;;;;;;;;;;;;;5134099;27;19924;-75
2021/08/26 00:21:39;;;;;;;;;;;;;;;;;;5133541;27;20370;-74
2021/08/26 00:24:06;;;;;;;;;;;;;;;;;;5133719;27;19923;-74
2021/08/26 00:26:32;;;;;;;;;;;;;;;;;;5133760;27;19923;-75
2021/08/26 00:28:58;;;;;;;;;;;;;;;;;;5133712;27;19923;-75
2021/08/26 00:31:25;;;;;;;;;;;;;;;;;;5133490;27;20382;-75
2021/08/26 00:33:51;;;;;;;;;;;;;;;;;;5133003;27;19924;-71
2021/08/26 00:36:17;;;;;;;;;;;;;;;;;;5133855;27;19924;-71
2021/08/26 00:38:44;;;;;;;;;;;;;;;;;;5133329;27;20081;-71
2021/08/26 00:41:10;;;;;;;;;;;;;;;;;;5133739;27;20281;-71
2021/08/26 00:43:37;;;;;;;;;;;;;;;;;;5133324;27;19931;-71
2021/08/26 00:46:03;;;;;;;;;;;;;;;;;;5133714;27;19924;-71
2021/08/26 00:48:30;;;;;;;;;;;;;;;;;;5133463;27;19923;-71
2021/08/26 00:50:56;;;;;;;;;;;;;;;;;;5133399;28;19929;-71
2021/08/26 00:53:22;;;;;;;;;;;;;;;;;;5133462;28;19923;-72
2021/08/26 00:55:48;;;;;;;;;;;;;;;;;;5133445;28;19931;-72
2021/08/26 00:58:15;;;;;;;;;;;;;;;;;;5133211;28;20377;-71
2021/08/26 01:00:41;;;;;;;;;;;;;;;;;;5133003;28;19927;-71
2021/08/26 01:03:07;;;;;;;;;;;;;;;;;;5133628;28;19924;-70
2021/08/26 01:05:34;;;;;;;;;;;;;;;;;;5133314;28;20374;-70
2021/08/26 01:08:00;;;;;;;;;;;;;;;;;;5133269;28;19924;-70
2021/08/26 01:10:26;;;;;;;;;;;;;;;;;;5133589;28;19946;-70
2021/08/26 01:12:52;;;;;;;;;;;;;;;;;;5132934;28;19931;-71
2021/08/26 01:15:19;;;;;;;;;;;;;;;;;;5133530;28;19930;-71
2021/08/26 01:17:46;;;;;;;;;;;;;;;;;;5132837;28;20305;-70
2021/08/26 01:20:12;;;;;;;;;;;;;;;;;;5133019;28;20331;-74
2021/08/26 01:22:38;;;;;;;;;;;;;;;;;;5132859;28;19924;-74
2021/08/26 01:25:05;;;;;;;;;;;;;;;;;;5133400;28;19927;-74
2021/08/26 01:27:31;;;;;;;;;;;;;;;;;;5133129;28;19924;-74
2021/08/26 01:29:57;;;;;;;;;;;;;;;;;;5132788;28;19927;-71
2021/08/26 01:32:24;;;;;;;;;;;;;;;;;;5132899;28;20373;-71
2021/08/26 01:34:50;;;;;;;;;;;;;;;;;;5132818;28;19924;-72
2021/08/26 01:37:16;;;;;;;;;;;;;;;;;;5133244;28;19923;-72
2021/08/26 01:39:43;;;;;;;;;;;;;;;;;;5132777;28;19923;-72
2021/08/26 01:42:09;;;;;;;;;;;;;;;;;;5133191;28;19931;-74
2021/08/26 01:44:35;;;;;;;;;;;;;;;;;;5135258;27;19927;-74
2021/08/26 01:47:01;;;;;;;;;;;;;;;;;;5136903;27;19992;-74
2021/08/26 01:49:28;;;;;;;;;;;;;;;;;;5136727;27;19931;-72
2021/08/26 01:51:54;;;;;;;;;;;;;;;;;;5136770;27;19924;-72
2021/08/26 01:54:20;;;;;;;;;;;;;;;;;;5136582;27;20369;-72
2021/08/26 01:56:47;;;;;;;;;;;;;;;;;;5136606;27;19923;-72
2021/08/26 01:59:13;;;;;;;;;;;;;;;;;;5136907;27;19924;-71
2021/08/26 02:01:39;;;;;;;;;;;;;;;;;;5136280;27;19930;-71
2021/08/26 02:04:06;;;;;;;;;;;;;;;;;;5136483;27;19927;-71
2021/08/26 02:06:32;;;;;;;;;;;;;;;;;;5136638;27;19923;-71
2021/08/26 02:08:59;;;;;;;;;;;;;;;;;;5136578;27;19927;-71
2021/08/26 02:11:25;;;;;;;;;;;;;;;;;;5136367;27;20396;-71
2021/08/26 02:13:51;;;;;;;;;;;;;;;;;;5136303;27;19931;-71
2021/08/26 02:16:17;;;;;;;;;;;;;;;;;;5136469;27;19946;-71
2021/08/26 02:18:44;;;;;;;;;;;;;;;;;;5135855;27;19931;-71
2021/08/26 02:21:10;;;;;;;;;;;;;;;;;;5136175;27;19923;-70
2021/08/26 02:23:36;;;;;;;;;;;;;;;;;;5136096;27;20396;-70
2021/08/26 02:26:03;;;;;;;;;;;;;;;;;;5136288;27;19930;-70
2021/08/26 02:28:29;;;;;;;;;;;;;;;;;;5136331;27;19930;-71
2021/08/26 02:30:55;;;;;;;;;;;;;;;;;;5135573;27;19935;-71
2021/08/26 02:33:21;;;;;;;;;;;;;;;;;;5135916;27;19931;-71
2021/08/26 02:35:48;;;;;;;;;;;;;;;;;;5135843;27;19946;-70
2021/08/26 02:38:14;;;;;;;;;;;;;;;;;;5135772;27;19923;-71
2021/08/26 02:40:40;;;;;;;;;;;;;;;;;;5135753;27;19930;-71
2021/08/26 02:43:07;;;;;;;;;;;;;;;;;;5135651;27;19931;-72
2021/08/26 02:45:33;;;;;;;;;;;;;;;;;;5135694;27;19931;-72
2021/08/26 02:47:59;;;;;;;;;;;;;;;;;;5135716;27;20290;-72
2021/08/26 02:50:26;;;;;;;;;;;;;;;;;;5135566;27;19928;-72
2021/08/26 02:52:52;;;;;;;;;;;;;;;;;;5135426;27;19923;-72
2021/08/26 02:55:18;;;;;;;;;;;;;;;;;;5134795;27;20392;-73
2021/08/26 02:57:44;;;;;;;;;;;;;;;;;;5135420;27;19923;-73
2021/08/26 03:00:11;;;;;;;;;;;;;;;;;;5135729;27;19923;-73
2021/08/26 03:02:37;;;;;;;;;;;;;;;;;;5135125;27;19923;-73
2021/08/26 03:05:03;;;;;;;;;;;;;;;;;;5135436;27;19923;-72
2021/08/26 03:07:30;;;;;;;;;;;;;;;;;;5135237;27;20293;-73
2021/08/26 03:09:56;;;;;;;;;;;;;;;;;;5134935;27;19927;-73
2021/08/26 03:12:22;;;;;;;;;;;;;;;;;;5135484;27;19923;-73
2021/08/26 03:14:48;;;;;;;;;;;;;;;;;;5134913;27;20411;-73
2021/08/26 03:17:15;;;;;;;;;;;;;;;;;;5134795;27;19924;-74
2021/08/26 03:19:41;;;;;;;;;;;;;;;;;;5135069;27;19927;-73
2021/08/26 03:22:07;;;;;;;;;;;;;;;;;;5134848;27;19923;-73
2021/08/26 03:24:34;;;;;;;;;;;;;;;;;;5135245;27;19923;-73
2021/08/26 03:27:00;;;;;;;;;;;;;;;;;;5134505;27;20301;-73
2021/08/26 03:29:26;;;;;;;;;;;;;;;;;;5134789;27;19934;-74
2021/08/26 03:31:52;;;;;;;;;;;;;;;;;;5134844;27;19924;-74
2021/08/26 03:34:19;;;;;;;;;;;;;;;;;;5134658;27;19923;-73
2021/08/26 03:36:45;;;;;;;;;;;;;;;;;;5134322;27;19923;-74
2021/08/26 03:39:11;;;;;;;;;;;;;;;;;;5134871;27;19923;-75
2021/08/26 03:41:38;;;;;;;;;;;;;;;;;;5135242;27;19923;-72
2021/08/26 03:44:04;;;;;;;;;;;;;;;;;;5134859;27;19923;-73
2021/08/26 03:46:31;;;;;;;;;;;;;;;;;;5134368;27;20396;-74
2021/08/26 03:48:57;;;;;;;;;;;;;;;;;;5134116;27;19927;-73
2021/08/26 03:51:23;;;;;;;;;;;;;;;;;;5134670;27;19930;-74
2021/08/26 03:53:50;;;;;;;;;;;;;;;;;;5134059;27;19924;-74
2021/08/26 03:56:16;;;;;;;;;;;;;;;;;;5134528;27;19928;-75
2021/08/26 03:58:42;;;;;;;;;;;;;;;;;;5134248;27;20285;-74
2021/08/26 04:01:09;;;;;;;;;;;;;;;;;;5134138;27;19930;-74
2021/08/26 04:03:35;;;;;;;;;;;;;;;;;;5134317;27;19923;-74
2021/08/26 04:06:01;;;;;;;;;;;;;;;;;;5133855;27;19930;-70
2021/08/26 04:08:27;;;;;;;;;;;;;;;;;;5133700;27;19923;-72
2021/08/26 04:10:54;;;;;;;;;;;;;;;;;;5133783;27;20342;-71
2021/08/26 04:13:21;;;;;;;;;;;;;;;;;;5134154;27;19931;-72
2021/08/26 04:15:47;;;;;;;;;;;;;;;;;;5133679;27;19927;-70
2021/08/26 04:18:14;;;;;;;;;;;;;;;;;;5134000;27;19924;-72
2021/08/26 04:20:40;;;;;;;;;;;;;;;;;;5133393;27;20305;-71
2021/08/26 04:23:06;;;;;;;;;;;;;;;;;;5133722;27;19927;-70
2021/08/26 04:25:33;;;;;;;;;;;;;;;;;;5134083;27;19923;-70
2021/08/26 04:27:59;;;;;;;;;;;;;;;;;;5133758;27;19945;-70
2021/08/26 04:30:25;;;;;;;;;;;;;;;;;;5133620;27;19923;-69
2021/08/26 04:32:51;;;;;;;;;;;;;;;;;;5133564;27;19923;-70
2021/08/26 04:35:18;;;;;;;;;;;;;;;;;;5133539;27;19930;-70
2021/08/26 04:37:44;;;;;;;;;;;;;;;;;;5133494;27;19923;-70
2021/08/26 04:40:10;;;;;;;;;;;;;;;;;;5133570;27;20277;-71
2021/08/26 04:42:37;;;;;;;;;;;;;;;;;;5133387;27;19927;-70
2021/08/26 04:45:03;;;;;;;;;;;;;;;;;;5133839;27;19931;-70
2021/08/26 04:47:29;;;;;;;;;;;;;;;;;;5133692;27;19924;-72
2021/08/26 04:49:56;;;;;;;;;;;;;;;;;;5133124;27;19923;-71
2021/08/26 04:52:22;;;;;;;;;;;;;;;;;;5133678;28;19923;-71
2021/08/26 04:54:48;;;;;;;;;;;;;;;;;;5133153;28;20397;-73
2021/08/26 04:57:14;;;;;;;;;;;;;;;;;;5133623;28;19931;-73
2021/08/26 04:59:41;;;;;;;;;;;;;;;;;;5132862;28;19923;-71
2021/08/26 05:02:07;;;;;;;;;;;;;;;;;;5133294;28;19928;-71
2021/08/26 05:04:33;;;;;;;;;;;;;;;;;;5133547;28;19924;-71
2021/08/26 05:07:00;;;;;;;;;;;;;;;;;;5133280;28;19924;-71
2021/08/26 05:09:26;;;;;;;;;;;;;;;;;;5133216;28;19938;-71
2021/08/26 05:11:52;;;;;;;;;;;;;;;;;;5133223;28;19923;-70
2021/08/26 05:14:18;;;;;;;;;;;;;;;;;;5133138;28;20377;-70
2021/08/26 05:16:45;;;;;;;;;;;;;;;;;;5132902;28;19924;-70
2021/08/26 05:19:11;;;;;;;;;;;;;;;;;;5134668;27;19923;-71
2021/08/26 05:21:37;;;;;;;;;;;;;;;;;;5136772;27;19934;-71
2021/08/26 05:24:04;;;;;;;;;;;;;;;;;;5137537;27;19930;-71
2021/08/26 05:26:30;;;;;;;;;;;;;;;;;;5137384;27;19947;-71
2021/08/26 05:28:56;;;;;;;;;;;;;;;;;;5136861;27;19931;-71
2021/08/26 05:31:23;;;;;;;;;;;;;;;;;;5137401;27;19931;-70
2021/08/26 05:33:49;;;;;;;;;;;;;;;;;;5136577;27;20318;-70
2021/08/26 05:36:15;;;;;;;;;;;;;;;;;;5136991;27;19923;-71
2021/08/26 05:38:41;;;;;;;;;;;;;;;;;;5136868;27;19927;-71
2021/08/26 05:41:08;;;;;;;;;;;;;;;;;;5136829;27;19928;-71
2021/08/26 05:43:34;;;;;;;;;;;;;;;;;;5136971;27;19931;-71
2021/08/26 05:46:00;;;;;;;;;;;;;;;;;;5136551;27;20388;-71
2021/08/26 05:48:27;;;;;;;;;;;;;;;;;;5137084;27;19930;-71
2021/08/26 05:50:53;;;;;;;;;;;;;;;;;;5136762;27;19923;-71
2021/08/26 05:53:19;;;;;;;;;;;;;;;;;;5136462;27;19939;-71
2021/08/26 05:55:47;;;;;;;;;;;;;;;;;;5136661;27;19924;-71
2021/08/26 05:58:13;;;;;;;;;;;;;;;;;;5136808;27;19928;-72
2021/08/26 06:00:40;;;;;;;;;;;;;;;;;;5136184;27;20374;-72
2021/08/26 06:03:06;;;;;;;;;;;;;;;;;;5136267;27;19931;-72
2021/08/26 06:05:32;;;;;;;;;;;;;;;;;;5136748;27;19947;-72
2021/08/26 06:07:59;;;;;;;;;;;;;;;;;;5136155;27;19930;-72
2021/08/26 06:10:25;;;;;;;;;;;;;;;;;;5136351;27;19923;-72
2021/08/26 06:12:52;;;;;;;;;;;;;;;;;;5136278;27;19924;-72
2021/08/26 06:15:18;;;;;;;;;;;;;;;;;;5136551;27;20032;-72
2021/08/26 06:17:44;;;;;;;;;;;;;;;;;;5135855;27;19923;-72
2021/08/26 06:20:11;;;;;;;;;;;;;;;;;;5136212;27;19923;-72
2021/08/26 06:22:38;;;;;;;;;;;;;;;;;;5135907;27;20470;-71
2021/08/26 06:25:04;;;;;;;;;;;;;;;;;;5136359;27;19924;-72
2021/08/26 06:27:31;;;;;;;;;;;;;;;;;;5136296;27;19945;-72
2021/08/26 06:29:57;;;;;;;;;;;;;;;;;;5135098;27;19969;-72
2021/08/26 06:32:23;;;;;;;;;;;;;;;;;;5135272;27;19923;-72
2021/08/26 06:34:49;;;;;;;;;;;;;;;;;;5135990;27;19924;-72
2021/08/26 06:37:16;;;;;;;;;;;;;;;;;;5135804;27;19931;-72
2021/08/26 06:39:42;;;;;;;;;;;;;;;;;;5135672;27;19927;-72
2021/08/26 06:42:08;;;;;;;;;;;;;;;;;;5135761;27;20393;-72
2021/08/26 06:44:35;;;;;;;;;;;;;;;;;;5135618;27;19923;-73
2021/08/26 06:47:01;;;;;;;;;;;;;;;;;;5135690;27;19923;-72
2021/08/26 06:49:27;;;;;;;;;;;;;;;;;;5135583;27;19931;-73
2021/08/26 06:51:53;;;;;;;;;;;;;;;;;;5135458;27;19923;-72
2021/08/26 06:54:20;;;;;;;;;;;;;;;;;;5135466;27;20396;-72
2021/08/26 06:56:46;;;;;;;;;;;;;;;;;;5135554;27;19924;-72
2021/08/26 06:59:12;;;;;;;;;;;;;;;;;;5135698;27;19923;-73
2021/08/26 07:01:39;;;;;;;;;;;;;;;;;;5135168;27;19927;-73
2021/08/26 07:04:05;;;;;;;;;;;;;;;;;;5135440;27;19923;-73
2021/08/26 07:06:31;;;;;;;;;;;;;;;;;;5135621;27;19923;-73
2021/08/26 07:08:58;;;;;;;;;;;;;;;;;;5135029;27;20444;-73
2021/08/26 07:11:24;;;;;;;;;;;;;;;;;;5135444;27;19927;-73
2021/08/26 07:13:50;;;;;;;;;;;;;;;;;;5134831;27;19930;-73
2021/08/26 07:16:17;;;;;;;;;;;;;;;;;;5135329;27;19923;-73
2021/08/26 07:18:43;;;;;;;;;;;;;;;;;;5134732;27;20296;-72
2021/08/26 07:21:09;;;;;;;;;;;;;;;;;;5134815;27;19933;-72
2021/08/26 07:23:35;;;;;;;;;;;;;;;;;;5135227;27;19923;-72
2021/08/26 07:26:02;;;;;;;;;;;;;;;;;;5134907;27;19945;-73
2021/08/26 07:28:28;;;;;;;;;;;;;;;;;;5134836;27;19924;-73
2021/08/26 07:30:54;;;;;;;;;;;;;;;;;;5134609;27;19924;-72
2021/08/26 07:33:21;;;;;;;;;;;;;;;;;;5134754;27;20385;-72
2021/08/26 07:35:47;;;;;;;;;;;;;;;;;;5134440;27;19923;-72
2021/08/26 07:38:13;;;;;;;;;;;;;;;;;;5134872;27;19923;-72
2021/08/26 07:40:39;;;;;;;;;;;;;;;;;;5134186;27;20294;-72
2021/08/26 07:43:06;;;;;;;;;;;;;;;;;;5134189;27;19930;-72
2021/08/26 07:45:32;;;;;;;;;;;;;;;;;;5134789;27;19924;-73
2021/08/26 07:47:58;;;;;;;;;;;;;;;;;;5134219;27;20377;-73
2021/08/26 07:50:25;;;;;;;;;;;;;;;;;;5134721;27;19924;-72
2021/08/26 07:52:51;;;;;;;;;;;;;;;;;;5134358;27;19924;-73
2021/08/26 07:55:17;;;;;;;;;;;;;;;;;;5134263;27;19924;-73
2021/08/26 07:57:44;;;;;;;;;;;;;;;;;;5134052;27;19924;-72
2021/08/26 08:00:10;;;;;;;;;;;;;;;;;;5134459;27;19927;-72
2021/08/26 08:02:36;;;;;;;;;;;;;;;;;;5134178;27;19930;-72
2021/08/26 08:05:02;;;;;;;;;;;;;;;;;;5134401;27;19923;-73
2021/08/26 08:07:29;;;;;;;;;;;;;;;;;;5134390;27;19923;-73
2021/08/26 08:09:55;;;;;;;;;;;;;;;;;;5133696;27;19923;-72
2021/08/26 08:12:22;;;;;;;;;;;;;;;;;;5134313;27;19924;-73
2021/08/26 08:14:48;;;;;;;;;;;;;;;;;;5134025;27;19923;-72
2021/08/26 08:17:15;;;;;;;;;;;;;;;;;;5133945;27;20381;-73
2021/08/26 08:19:41;;;;;;;;;;;;;;;;;;5133688;27;19923;-73
2021/08/26 08:22:07;;;;;;;;;;;;;;;;;;5133764;27;19924;-73
2021/08/26 08:24:34;;;;;;;;;;;;;;;;;;5133810;27;19923;-73
2021/08/26 08:27:00;;;;;;;;;;;;;;;;;;5133803;27;19928;-73
2021/08/26 08:29:26;;;;;;;;;;;;;;;;;;5133639;27;20286;-73
2021/08/26 08:31:53;;;;;;;;;;;;;;;;;;5133440;27;19924;-72
2021/08/26 08:34:19;;;;;;;;;;;;;;;;;;5133916;27;19923;-73
2021/08/26 08:36:45;;;;;;;;;;;;;;;;;;5133646;27;20271;-73
2021/08/26 08:39:11;;;;;;;;;;;;;;;;;;5133655;27;19924;-71
2021/08/26 08:41:38;;;;;;;;;;;;;;;;;;5133592;27;19924;-72
2021/08/26 08:44:04;;;;;;;;;;;;;;;;;;5133519;27;19931;-72
2021/08/26 08:46:30;;;;;;;;;;;;;;;;;;5133803;27;19927;-72
2021/08/26 08:48:57;;;;;;;;;;;;;;;;;;5133460;27;19923;-73
2021/08/26 08:51:23;;;;;;;;;;;;;;;;;;5133366;28;19924;-72
2021/08/26 08:53:49;;;;;;;;;;;;;;;;;;5132948;27;19930;-72
2021/08/26 08:56:15;;;;;;;;;;;;;;;;;;5133371;28;20396;-72
2021/08/26 08:58:42;;;;;;;;;;;;;;;;;;5133091;28;19927;-72
2021/08/26 09:01:08;;;;;;;;;;;;;;;;;;5133585;28;19924;-72
2021/08/26 09:03:34;;;;;;;;;;;;;;;;;;5133137;28;19930;-72
2021/08/26 09:06:01;;;;;;;;;;;;;;;;;;5133346;28;19928;-72
2021/08/26 09:08:27;;;;;;;;;;;;;;;;;;5133537;28;19956;-72
2021/08/26 09:10:54;;;;;;;;;;;;;;;;;;5133302;28;19928;-72
2021/08/26 09:13:20;;;;;;;;;;;;;;;;;;5133475;28;20003;-72
2021/08/26 09:15:47;;;;;;;;;;;;;;;;;;5132990;28;19924;-72
2021/08/26 09:18:13;;;;;;;;;;;;;;;;;;5133169;28;19969;-71
2021/08/26 09:20:39;;;;;;;;;;;;;;;;;;5132796;28;19930;-72
2021/08/26 09:23:06;;;;;;;;;;;;;;;;;;5133110;28;19923;-73
2021/08/26 09:25:33;;;;;;;;;;;;;;;;;;5133339;28;19937;-72
2021/08/26 09:27:59;;;;;;;;;;;;;;;;;;5133141;28;19976;-72
2021/08/26 09:30:26;;;;;;;;;;;;;;;;;;5133016;28;20005;-74
2021/08/26 09:32:52;;;;;;;;;;;;;;;;;;5133134;28;19932;-73
2021/08/26 09:35:18;;;;;;;;;;;;;;;;;;5133284;28;19924;-72
2021/08/26 09:37:45;;;;;;;;;;;;;;;;;;5132696;28;20374;-72
2021/08/26 09:40:11;;;;;;;;;;;;;;;;;;5133173;28;19927;-72
2021/08/26 09:42:37;;;;;;;;;;;;;;;;;;5133045;28;19923;-72
2021/08/26 09:45:04;;;;;;;;;;;;;;;;;;5132930;28;20378;-72
2021/08/26 09:47:30;;;;;;;;;;;;;;;;;;5132927;28;19930;-72
2021/08/26 09:49:56;;;;;;;;;;;;;;;;;;5132827;28;19931;-73
2021/08/26 09:52:22;;;;;;;;;;;;;;;;;;5132895;28;20301;-73
2021/08/26 09:54:50;;;;;;;;;;;;;;;;;;5132622;28;19931;-72
2021/08/26 09:57:16;;;;;;;;;;;;;;;;;;5132811;28;20301;-73
2021/08/26 09:59:43;;;;;;;;;;;;;;;;;;5132396;28;19933;-73
2021/08/26 10:02:09;;;;;;;;;;;;;;;;;;5133108;28;19923;-72
2021/08/26 10:04:35;;;;;;;;;;;;;;;;;;5133339;27;19954;-73
2021/08/26 10:07:02;;;;;;;;;;;;;;;;;;5136175;27;20389;-72
2021/08/26 10:09:28;;;;;;;;;;;;;;;;;;5136363;27;19923;-73
2021/08/26 10:11:54;;;;;;;;;;;;;;;;;;5136356;27;19930;-73
2021/08/26 10:14:21;;;;;;;;;;;;;;;;;;5136279;27;20372;-73
2021/08/26 10:16:47;;;;;;;;;;;;;;;;;;5136352;27;19923;-72
2021/08/26 10:19:15;;;;;;;;;;;;;;;;;;5136135;27;19924;-72
2021/08/26 10:21:41;;;;;;;;;;;;;;;;;;5135844;27;19927;-72
2021/08/26 10:24:07;;;;;;;;;;;;;;;;;;5136316;27;19923;-72
2021/08/26 10:26:34;;;;;;;;;;;;;;;;;;5136054;27;19931;-72
2021/08/26 10:29:00;;;;;;;;;;;;;;;;;;5135748;27;19949;-73
2021/08/26 10:31:26;;;;;;;;;;;;;;;;;;5136314;27;19924;-71
2021/08/26 10:33:53;;;;;;;;;;;;;;;;;;5135706;27;19930;-72
2021/08/26 10:36:19;;;;;;;;;;;;;;;;;;5136234;27;19923;-72
2021/08/26 10:38:46;;;;;;;;;;;;;;;;;;5135842;27;19923;-72
2021/08/26 10:41:12;;;;;;;;;;;;;;;;;;5135595;27;19923;-72
2021/08/26 10:43:38;;;;;;;;;;;;;;;;;;5135876;27;19930;-72
2021/08/26 10:46:05;;;;;;;;;;;;;;;;;;5136075;27;19923;-72
2021/08/26 10:48:31;;;;;;;;;;;;;;;;;;5135573;27;20416;-72
2021/08/26 10:50:57;;;;;;;;;;;;;;;;;;5135607;27;20060;-72
2021/08/26 10:53:24;;;;;;;;;;;;;;;;;;5135867;27;20293;-72
2021/08/26 10:55:50;;;;;;;;;;;;;;;;;;5135278;27;19931;-72
2021/08/26 10:58:17;;;;;;;;;;;;;;;;;;5135732;27;19931;-72
2021/08/26 11:00:43;;;;;;;;;;;;;;;;;;5135341;27;19946;-72
2021/08/26 11:03:09;;;;;;;;;;;;;;;;;;5135324;27;19923;-72
2021/08/26 11:05:36;;;;;;;;;;;;;;;;;;5135548;27;19931;-72
2021/08/26 11:08:02;;;;;;;;;;;;;;;;;;5135367;27;19928;-71
2021/08/26 11:10:28;;;;;;;;;;;;;;;;;;5135212;27;20399;-70
2021/08/26 11:12:54;;;;;;;;;;;;;;;;;;5135191;27;19923;-70
2021/08/26 11:15:21;;;;;;;;;;;;;;;;;;5135474;27;19924;-71
2021/08/26 11:17:47;;;;;;;;;;;;;;;;;;5134185;27;19923;-71
2021/08/26 11:20:13;;;;;;;;;;;;;;;;;;5135032;27;19938;-72
2021/08/26 11:22:40;;;;;;;;;;;;;;;;;;5134819;27;20294;-71
2021/08/26 11:25:06;;;;;;;;;;;;;;;;;;5135118;27;20391;-72
2021/08/26 11:27:32;;;;;;;;;;;;;;;;;;5134853;27;19933;-71
2021/08/26 11:29:59;;;;;;;;;;;;;;;;;;5134945;27;19927;-71
2021/08/26 11:32:25;;;;;;;;;;;;;;;;;;5135165;27;19973;-70
2021/08/26 11:34:52;;;;;;;;;;;;;;;;;;5134499;27;20117;-71
2021/08/26 11:37:20;;;;;;;;;;;;;;;;;;5133876;27;20314;-71
2021/08/26 11:39:46;;;;;;;;;;;;;;;;;;5134640;27;19930;-70
2021/08/26 11:42:13;;;;;;;;;;;;;;;;;;5134556;27;19927;-71
2021/08/26 11:44:39;;;;;;;;;;;;;;;;;;5134626;27;19931;-71
2021/08/26 11:47:05;;;;;;;;;;;;;;;;;;5134491;27;20412;-69
2021/08/26 11:49:32;;;;;;;;;;;;;;;;;;5134263;27;20421;-70
2021/08/26 11:51:58;;;;;;;;;;;;;;;;;;5134182;27;19939;-71
2021/08/26 11:54:24;;;;;;;;;;;;;;;;;;5134693;27;19924;-71
2021/08/26 11:56:51;;;;;;;;;;;;;;;;;;5134079;27;20294;-71
2021/08/26 11:59:17;;;;;;;;;;;;;;;;;;5134502;27;19924;-71
2021/08/26 12:01:43;;;;;;;;;;;;;;;;;;5133790;27;19923;-71
2021/08/26 12:04:10;;;;;;;;;;;;;;;;;;5134283;27;19938;-72
2021/08/26 12:06:36;;;;;;;;;;;;;;;;;;5134108;27;20366;-71
2021/08/26 12:09:02;;;;;;;;;;;;;;;;;;5133734;27;19928;-71
2021/08/26 12:11:28;;;;;;;;;;;;;;;;;;5134356;27;19930;-71
2021/08/26 12:13:55;;;;;;;;;;;;;;;;;;5133978;27;20006;-70
2021/08/26 12:16:21;;;;;;;;;;;;;;;;;;5133844;27;19924;-70
2021/08/26 12:18:47;;;;;;;;;;;;;;;;;;5133992;27;19931;-71
2021/08/26 12:21:14;;;;;;;;;;;;;;;;;;5133745;27;20293;-70
2021/08/26 12:23:40;;;;;;;;;;;;;;;;;;5133573;27;19930;-71
2021/08/26 12:26:07;;;;;;;;;;;;;;;;;;5133685;27;20432;-71
2021/08/26 12:28:33;;;;;;;;;;;;;;;;;;5132749;27;19930;-71
2021/08/26 12:30:59;;;;;;;;;;;;;;;;;;5133771;27;19923;-71
2021/08/26 12:33:26;;;;;;;;;;;;;;;;;;5133721;27;20280;-71
2021/08/26 12:35:52;;;;;;;;;;;;;;;;;;5133329;27;19935;-71
2021/08/26 12:38:18;;;;;;;;;;;;;;;;;;5133927;27;19924;-72
2021/08/26 12:40:44;;;;;;;;;;;;;;;;;;5133248;27;19924;-71
2021/08/26 12:43:11;;;;;;;;;;;;;;;;;;5133752;27;19923;-73
2021/08/26 12:45:37;;;;;;;;;;;;;;;;;;5133846;27;19930;-71
2021/08/26 12:48:03;;;;;;;;;;;;;;;;;;5133517;27;20442;-71
2021/08/26 12:50:30;;;;;;;;;;;;;;;;;;5133421;27;19923;-71
2021/08/26 12:52:56;;;;;;;;;;;;;;;;;;5133210;27;19927;-71
2021/08/26 12:55:22;;;;;;;;;;;;;;;;;;5133935;28;19928;-71
2021/08/26 12:57:49;;;;;;;;;;;;;;;;;;5133480;28;19930;-71
2021/08/26 13:00:15;;;;;;;;;;;;;;;;;;5133271;28;20396;-71
2021/08/26 13:02:41;;;;;;;;;;;;;;;;;;5132954;28;19930;-71
2021/08/26 13:05:08;;;;;;;;;;;;;;;;;;5133499;28;19930;-71
2021/08/26 13:07:34;;;;;;;;;;;;;;;;;;5133275;28;20297;-71
2021/08/26 13:10:00;;;;;;;;;;;;;;;;;;5133244;28;19923;-71
2021/08/26 13:12:26;;;;;;;;;;;;;;;;;;5133443;28;19924;-71
2021/08/26 13:14:53;;;;;;;;;;;;;;;;;;5133191;28;19950;-71
2021/08/26 13:17:19;;;;;;;;;;;;;;;;;;5133080;28;19923;-72
2021/08/26 13:19:45;;;;;;;;;;;;;;;;;;5133175;28;19924;-71
2021/08/26 13:22:12;;;;;;;;;;;;;;;;;;5132969;28;20365;-71
2021/08/26 13:24:38;;;;;;;;;;;;;;;;;;5133004;28;19923;-71
2021/08/26 13:27:04;;;;;;;;;;;;;;;;;;5133329;28;19923;-71
2021/08/26 13:29:31;;;;;;;;;;;;;;;;;;5132929;28;20374;-71
2021/08/26 13:31:57;;;;;;;;;;;;;;;;;;5132768;28;19923;-71
2021/08/26 13:34:23;;;;;;;;;;;;;;;;;;5133261;28;19933;-71
2021/08/26 13:36:49;;;;;;;;;;;;;;;;;;5132771;28;20422;-71
2021/08/26 13:39:16;;;;;;;;;;;;;;;;;;5132878;27;19924;-72
2021/08/26 13:41:43;;;;;;;;;;;;;;;;;;5135298;27;19923;-76
2021/08/26 13:44:09;;;;;;;;;;;;;;;;;;5132039;27;19923;-75
2021/08/26 13:46:35;;;;;;;;;;;;;;;;;;5136660;27;19931;-73
2021/08/26 13:49:02;;;;;;;;;;;;;;;;;;5136735;27;19983;-73
2021/08/26 13:51:28;;;;;;;;;;;;;;;;;;5136139;27;19924;-73
2021/08/26 13:53:54;;;;;;;;;;;;;;;;;;5136730;27;19946;-73
2021/08/26 13:56:21;;;;;;;;;;;;;;;;;;5136673;27;19930;-73
2021/08/26 13:58:47;;;;;;;;;;;;;;;;;;5136243;27;19937;-72
2021/08/26 14:01:13;;;;;;;;;;;;;;;;;;5136706;27;19927;-75
2021/08/26 14:03:40;;;;;;;;;;;;;;;;;;5136169;27;20369;-75
2021/08/26 14:06:06;;;;;;;;;;;;;;;;;;5136474;27;19931;-79
2021/08/26 14:08:32;;;;;;;;;;;;;;;;;;5136626;27;19930;-74
2021/08/26 14:10:59;;;;;;;;;;;;;;;;;;5125701;27;19939;-74
2021/08/26 14:13:25;;;;;;;;;;;;;;;;;;5115746;28;19924;-73
2021/08/26 14:15:51;;;;;;;;;;;;;;;;;;5114648;28;19938;-72
2021/08/26 14:18:17;;;;;;;;;;;;;;;;;;5114347;28;19924;-75
2021/08/26 14:20:44;;;;;;;;;;;;;;;;;;5113745;28;19928;-75
2021/08/26 14:23:10;;;;;;;;;;;;;;;;;;5114798;28;19924;-75
2021/08/26 14:25:36;;;;;;;;;;;;;;;;;;5114684;28;20410;-75
2021/08/26 14:28:03;;;;;;;;;;;;;;;;;;5114528;28;19923;-75
2021/08/26 14:30:29;;;;;;;;;;;;;;;;;;5115018;28;19923;-75
2021/08/26 14:32:55;;;;;;;;;;;;;;;;;;5114511;28;19945;-75
2021/08/26 14:35:22;;;;;;;;;;;;;;;;;;5115008;28;19930;-75
2021/08/26 14:37:48;;;;;;;;;;;;;;;;;;5115430;28;19924;-75
2021/08/26 14:40:14;;;;;;;;;;;;;;;;;;5115520;28;19928;-74
2021/08/26 14:42:41;;;;;;;;;;;;;;;;;;5114993;28;19931;-75
2021/08/26 14:45:07;;;;;;;;;;;;;;;;;;5115439;28;19923;-74
2021/08/26 14:47:33;;;;;;;;;;;;;;;;;;5115398;28;20293;-74
2021/08/26 14:49:59;;;;;;;;;;;;;;;;;;5114653;28;19930;-74
2021/08/26 14:52:26;;;;;;;;;;;;;;;;;;5114016;28;20385;-77
2021/08/26 14:54:52;;;;;;;;;;;;;;;;;;5114432;28;20023;-75
2021/08/26 14:57:18;;;;;;;;;;;;;;;;;;5113471;28;19924;-75
2021/08/26 14:59:46;;;;;;;;;;;;;;;;;;5113625;28;19927;-75
2021/08/26 15:02:12;;;;;;;;;;;;;;;;;;5114100;28;20393;-76
2021/08/26 15:04:38;;;;;;;;;;;;;;;;;;5113618;28;19924;-76
2021/08/26 15:07:05;;;;;;;;;;;;;;;;;;5114084;28;19934;-76
2021/08/26 15:09:31;;;;;;;;;;;;;;;;;;5113942;28;19930;-76
2021/08/26 15:11:57;;;;;;;;;;;;;;;;;;5114682;28;20385;-76
2021/08/26 15:14:24;;;;;;;;;;;;;;;;;;5114866;28;19930;-76
2021/08/26 15:16:50;;;;;;;;;;;;;;;;;;5114633;28;20266;-76
2021/08/26 15:19:16;;;;;;;;;;;;;;;;;;5114504;28;19924;-76
2021/08/26 15:21:43;;;;;;;;;;;;;;;;;;5114272;28;20040;-76
2021/08/26 15:24:09;;;;;;;;;;;;;;;;;;5114763;28;20014;-76
2021/08/26 15:26:35;;;;;;;;;;;;;;;;;;5114608;28;20306;-76
2021/08/26 15:29:01;;;;;;;;;;;;;;;;;;5114115;28;19924;-76
2021/08/26 15:31:28;;;;;;;;;;;;;;;;;;5114230;28;19930;-76
2021/08/26 15:33:54;;;;;;;;;;;;;;;;;;5114338;28;19923;-76
2021/08/26 15:36:22;;;;;;;;;;;;;;;;;;5113981;28;20374;-78
2021/08/26 15:38:48;;;;;;;;;;;;;;;;;;5113935;28;19923;-77
2021/08/26 15:41:14;;;;;;;;;;;;;;;;;;5114017;28;20366;-75
2021/08/26 15:43:41;;;;;;;;;;;;;;;;;;5112354;28;19930;-74
2021/08/26 15:46:07;;;;;;;;;;;;;;;;;;5114062;28;19924;-74
2021/08/26 15:48:33;;;;;;;;;;;;;;;;;;5113808;28;20293;-73
2021/08/26 15:51:00;;;;;;;;;;;;;;;;;;5113758;28;20505;-72
2021/08/26 15:53:30;;;;;;;;;;;;;;;;;;5114230;28;19977;-75
2021/08/26 15:55:56;;;;;;;;;;;;;;;;;;5114244;28;20364;-74
2021/08/26 15:58:31;;;;;;;;;;;;;;;;;;5114555;28;19989;-74
2021/08/26 16:01:01;;;;;;;;;;;;;;;;;;5113080;28;19924;-74
2021/08/26 16:03:28;;;;;;;;;;;;;;;;;;5113792;28;20014;-74
2021/08/26 16:05:54;;;;;;;;;;;;;;;;;;5113703;28;20015;-74
2021/08/26 16:08:20;;;;;;;;;;;;;;;;;;5113601;28;19924;-74
2021/08/26 16:10:48;;;;;;;;;;;;;;;;;;5113321;28;19928;-74
2021/08/26 16:13:14;;;;;;;;;;;;;;;;;;5113880;28;19924;-74
2021/08/26 16:15:41;;;;;;;;;;;;;;;;;;5113475;28;19923;-74
2021/08/26 16:18:07;;;;;;;;;;;;;;;;;;5113348;28;20399;-74
2021/08/26 16:20:33;;;;;;;;;;;;;;;;;;5113215;28;19924;-74
2021/08/26 16:23:00;;;;;;;;;;;;;;;;;;5113371;28;19931;-74
2021/08/26 16:25:26;;;;;;;;;;;;;;;;;;5113065;28;19942;-74
2021/08/26 16:27:52;;;;;;;;;;;;;;;;;;5113342;28;19923;-74
2021/08/26 16:30:19;;;;;;;;;;;;;;;;;;5113567;28;19924;-74
2021/08/26 16:32:45;;;;;;;;;;;;;;;;;;5112968;28;19924;-74
2021/08/26 16:35:13;;;;;;;;;;;;;;;;;;5113304;28;19924;-74
2021/08/26 16:37:39;;;;;;;;;;;;;;;;;;5112875;28;19924;-74
2021/08/26 16:40:05;;;;;;;;;;;;;;;;;;5113384;28;19923;-73
2021/08/26 16:42:32;;;;;;;;;;;;;;;;;;5113261;28;19945;-74
2021/08/26 16:44:58;;;;;;;;;;;;;;;;;;5112593;28;19927;-74